Terminal Aerodrome Forecast
Issued by NWS

Home | Current Version | Previous Version | Text Only | Print | Product List | Glossary On
Versions: 1 2 3 4 5 6 7 8 9 10 11 12 13 14 15 16
000
FTUS43 KGRR 070529
TAFJXN
TAF
KJXN 070529Z 0706/0806 21007KT P6SM SCT120 BKN250
     FM071100 21011KT 6SM -SHRA BR VCTS BKN025CB OVC050
     FM071500 22010KT 6SM -SHRA BR OVC009
     FM071900 28010KT 4SM -SHRA OVC015
     FM072300 34010KT P6SM BKN050=

USA.gov is the U.S. government's official web portal to all federal, state and local government web resources and services.